Stony Brook, New York
Current Conditions -  °F | °C
As of 4:56 AM on Sunday 26 Oct 2014 (Local Time) from KISP Reporting Station
Broken Clouds Broken Clouds  
Wind Chill: 55°   Ceiling: 8500
Heat Index: 55°   Visibility: 10mi
Dew Point: 44°   Wind: 13mph
Humidity: 67%   Direction: 320°NW
Pressure: 29.54"   Gusts: 24mph
Location:  40.92°N, 73.13°W
Report Text: KISP 260856Z AUTO 32011G21KT 10SM SCT065 BKN085 BKN110 13/07 A2954 RMK AO2 PK WND 30031/0839 SLP004 T01280067 53003
Loading
Personal Weather Stations






























Interactive Weather Map New forecast layout! Learn more

10-Day Weather Forecast

Advertisements
Track Severe Weather on mobile